createdAt,value
2022-08-19T00:01:29.208Z,94752.66
2022-08-19T00:04:04.391Z,94747.72
2022-08-19T00:06:31.592Z,94748.88
2022-08-19T00:09:01.077Z,94752.06
2022-08-19T00:11:28.952Z,94756.78
2022-08-19T00:13:57.630Z,94746.84
2022-08-19T00:16:26.809Z,94760.00
2022-08-19T00:18:56.478Z,94758.41
2022-08-19T00:21:26.892Z,94756.25
2022-08-19T00:23:55.431Z,94750.22
2022-08-19T00:26:22.259Z,94760.00
2022-08-19T00:28:49.067Z,94757.34
2022-08-19T00:31:17.288Z,94762.91
2022-08-19T00:33:44.347Z,94756.97
2022-08-19T00:36:12.476Z,94758.34
2022-08-19T00:38:44.249Z,94759.22
2022-08-19T00:41:15.585Z,94759.56
2022-08-19T00:43:42.559Z,94759.97
2022-08-19T00:46:10.040Z,94760.78
2022-08-19T00:48:37.579Z,94769.00
2022-08-19T00:51:06.782Z,94762.13
2022-08-19T00:53:35.118Z,94755.88
2022-08-19T00:56:05.245Z,94765.81
2022-08-19T00:58:34.894Z,94757.41
2022-08-19T01:01:03.512Z,94744.97
2022-08-19T01:03:56.977Z,94761.78
2022-08-19T01:06:19.841Z,94762.34
2022-08-19T01:08:50.224Z,94760.22
2022-08-19T01:11:17.561Z,94754.38
2022-08-19T01:13:50.004Z,94748.00
2022-08-19T01:16:19.356Z,94749.56
2022-08-19T01:18:46.606Z,94735.34
2022-08-19T01:21:28.382Z,94740.06
2022-08-19T01:23:55.761Z,94744.97
2022-08-19T01:26:25.376Z,94740.25
2022-08-19T01:28:57.437Z,94746.06
2022-08-19T01:31:33.106Z,94756.94
2022-08-19T01:34:01.784Z,94737.56
2022-08-19T01:36:31.359Z,94743.13
2022-08-19T01:38:59.951Z,94740.25
2022-08-19T01:41:26.732Z,94747.91
2022-08-19T01:44:12.410Z,94747.69
2022-08-19T01:46:42.432Z,94745.38
2022-08-19T01:49:09.406Z,94747.25
2022-08-19T01:51:40.202Z,94738.13
2022-08-19T01:54:09.523Z,94754.72
2022-08-19T01:56:36.806Z,94747.72
2022-08-19T01:59:09.378Z,94745.13
2022-08-19T02:01:36.262Z,94749.34
2022-08-19T02:04:03.310Z,94737.81
2022-08-19T02:06:30.833Z,94753.09
2022-08-19T02:08:58.470Z,94737.84
2022-08-19T02:11:35.006Z,94743.63
2022-08-19T02:14:04.147Z,94747.34
2022-08-19T02:16:31.603Z,94741.63
2022-08-19T02:19:01.571Z,94755.28
2022-08-19T02:21:30.029Z,94761.09
2022-08-19T02:23:57.535Z,94745.09
2022-08-19T02:26:24.561Z,94755.84
2022-08-19T02:28:51.348Z,94752.72
2022-08-19T02:31:21.858Z,94757.19
2022-08-19T02:33:49.325Z,94756.94
2022-08-19T02:36:17.295Z,94759.56
2022-08-19T02:38:55.178Z,94758.28
2022-08-19T02:41:26.744Z,94756.19
2022-08-19T02:44:26.558Z,94742.34
2022-08-19T02:46:42.955Z,94748.63
2022-08-19T02:49:09.782Z,94754.41
2022-08-19T02:51:41.101Z,94749.72
2022-08-19T02:54:09.686Z,94763.63
2022-08-19T02:56:38.953Z,94751.53
2022-08-19T02:59:10.341Z,94753.91
2022-08-19T03:01:41.433Z,94758.63
2022-08-19T03:04:11.161Z,94759.16
2022-08-19T03:06:39.955Z,94756.25
2022-08-19T03:09:06.993Z,94755.94
2022-08-19T03:11:34.324Z,94753.84
2022-08-19T03:14:02.994Z,94760.69
2022-08-19T03:16:33.690Z,94759.91
2022-08-19T03:19:02.608Z,94758.56
2022-08-19T03:21:34.695Z,94764.38
2022-08-19T03:24:08.772Z,94756.50
2022-08-19T03:26:40.882Z,94757.00
2022-08-19T03:29:11.650Z,94753.31
2022-08-19T03:31:52.534Z,94755.94
2022-08-19T03:34:29.241Z,94759.13
2022-08-19T03:37:07.240Z,94760.75
2022-08-19T03:39:34.922Z,94760.19
2022-08-19T03:42:30.234Z,94770.75
2022-08-19T03:44:50.184Z,94762.88
2022-08-19T03:47:17.992Z,94760.50
2022-08-19T03:49:45.364Z,94770.25
2022-08-19T03:52:12.140Z,94770.25
2022-08-19T03:54:39.483Z,94775.75
2022-08-19T03:57:06.436Z,94763.97
2022-08-19T03:59:36.360Z,94788.09
2022-08-19T04:02:10.229Z,94787.03
2022-08-19T04:04:39.939Z,94787.53
2022-08-19T04:07:07.239Z,94762.88
2022-08-19T04:09:35.425Z,94794.38
2022-08-19T04:12:02.221Z,94795.41
2022-08-19T04:14:34.791Z,94798.03
2022-08-19T04:17:06.072Z,94796.44
2022-08-19T04:19:35.000Z,94805.34
2022-08-19T04:22:02.100Z,94809.56
2022-08-19T04:24:29.203Z,94802.19
2022-08-19T04:26:56.861Z,94809.25
2022-08-19T04:29:26.464Z,94804.72
2022-08-19T04:31:56.641Z,94814.69
2022-08-19T04:34:27.172Z,94808.09
2022-08-19T04:36:56.338Z,94809.84
2022-08-19T04:39:45.787Z,94807.09
2022-08-19T04:42:31.748Z,94802.53
2022-08-19T04:44:59.705Z,94795.06
2022-08-19T04:47:48.253Z,94783.94
2022-08-19T04:50:14.924Z,94799.25
2022-08-19T04:52:46.026Z,94798.03
2022-08-19T04:55:13.686Z,94789.50
2022-08-19T04:57:41.492Z,94795.56
2022-08-19T05:00:10.941Z,94793.09
2022-08-19T05:02:38.585Z,94795.78
2022-08-19T05:05:07.649Z,94798.78
2022-08-19T05:07:34.839Z,94803.84
2022-08-19T05:10:01.867Z,94806.91
2022-08-19T05:12:29.877Z,94816.38
2022-08-19T05:14:58.503Z,94818.81
2022-08-19T05:17:28.976Z,94822.25
2022-08-19T05:20:17.666Z,94826.00
2022-08-19T05:22:47.666Z,94823.97
2022-08-19T05:25:21.730Z,94818.19
2022-08-19T05:27:48.598Z,94820.19
2022-08-19T05:30:16.675Z,94807.81
2022-08-19T05:32:43.489Z,94815.88
2022-08-19T05:35:10.760Z,94821.56
2022-08-19T05:37:38.812Z,94823.75
2022-08-19T05:40:06.077Z,94822.78
2022-08-19T05:42:32.967Z,94806.91
2022-08-19T05:44:59.809Z,94816.28
2022-08-19T05:47:26.800Z,94820.28
2022-08-19T05:49:53.621Z,94806.47
2022-08-19T05:52:25.977Z,94825.47
2022-08-19T05:54:56.191Z,94828.75
2022-08-19T05:57:24.654Z,94826.09
2022-08-19T05:59:56.748Z,94822.75
2022-08-19T06:02:28.798Z,94827.69
2022-08-19T06:04:55.671Z,94834.91
2022-08-19T06:07:22.962Z,94836.25
2022-08-19T06:09:58.932Z,94834.69
2022-08-19T06:12:32.780Z,94823.91
2022-08-19T06:15:02.241Z,94830.47
2022-08-19T06:17:32.623Z,94845.50
2022-08-19T06:20:00.191Z,94841.34
2022-08-19T06:22:28.409Z,94844.53
2022-08-19T06:24:56.797Z,94843.03
2022-08-19T06:27:24.278Z,94841.94
2022-08-19T06:29:51.135Z,94846.00
2022-08-19T06:32:20.170Z,94841.34
2022-08-19T06:34:47.513Z,94855.31
2022-08-19T06:37:15.076Z,94848.44
2022-08-19T06:39:44.767Z,94855.31
2022-08-19T06:42:14.138Z,94855.34
2022-08-19T06:44:43.285Z,94844.09
2022-08-19T06:47:22.998Z,94842.78
2022-08-19T06:49:54.822Z,94855.88
2022-08-19T06:52:27.663Z,94850.69
2022-08-19T06:54:59.550Z,94851.44
2022-08-19T06:57:27.781Z,94850.84
2022-08-19T06:59:55.754Z,94853.03
2022-08-19T07:02:23.599Z,94852.31
2022-08-19T07:04:52.614Z,94845.72
2022-08-19T07:07:21.825Z,94851.31
2022-08-19T07:09:51.864Z,94846.16
2022-08-19T07:12:25.492Z,94850.97
2022-08-19T07:14:54.613Z,94847.72
2022-08-19T07:17:21.865Z,94852.78
2022-08-19T07:19:48.730Z,94848.31
2022-08-19T07:22:15.993Z,94847.91
2022-08-19T07:24:51.288Z,94846.66
2022-08-19T07:27:24.738Z,94854.00
2022-08-19T07:29:54.508Z,94850.03
2022-08-19T07:32:23.684Z,94857.97
2022-08-19T07:34:50.444Z,94849.22
2022-08-19T07:37:17.267Z,94854.34
2022-08-19T07:39:44.082Z,94855.50
2022-08-19T07:42:13.319Z,94847.03
2022-08-19T07:47:49.744Z,94846.38
2022-08-19T07:49:59.689Z,94840.13
2022-08-19T07:52:26.664Z,94854.41
2022-08-19T07:54:53.437Z,94852.00
2022-08-19T07:57:20.182Z,94852.50
2022-08-19T07:59:47.071Z,94855.78
2022-08-19T08:02:14.003Z,94849.50
2022-08-19T08:04:59.298Z,94848.94
2022-08-19T08:07:46.445Z,94858.53
2022-08-19T08:10:20.651Z,94854.22
2022-08-19T08:13:01.858Z,94853.38
2022-08-19T08:15:41.301Z,94854.09
2022-08-19T08:18:08.996Z,94860.31
2022-08-19T08:20:36.232Z,94856.16
2022-08-19T08:23:21.964Z,94853.34
2022-08-19T08:25:50.027Z,94849.94
2022-08-19T08:28:18.284Z,94856.06
2022-08-19T08:30:48.487Z,94854.78
2022-08-19T08:33:33.378Z,94844.78
2022-08-19T08:36:12.402Z,94825.91
2022-08-19T08:38:40.813Z,94845.94
2022-08-19T08:41:31.355Z,94844.19
2022-08-19T08:43:59.737Z,94835.38
2022-08-19T08:46:52.742Z,94840.97
2022-08-19T08:49:43.582Z,94839.28
2022-08-19T08:52:30.703Z,94831.13
2022-08-19T08:55:02.494Z,94828.91
2022-08-19T08:57:45.397Z,94833.63
2022-08-19T09:00:17.806Z,94824.34
2022-08-19T09:02:50.560Z,94827.50
2022-08-19T09:05:22.158Z,94828.44
2022-08-19T09:08:03.744Z,94820.69
2022-08-19T09:10:44.343Z,94820.09
2022-08-19T09:13:38.998Z,94812.63
2022-08-19T09:16:21.648Z,94810.44
2022-08-19T09:18:59.073Z,94813.56
2022-08-19T09:21:33.196Z,94808.47
2022-08-19T09:24:03.523Z,94816.03
2022-08-19T09:26:47.594Z,94811.34
2022-08-19T09:29:18.242Z,94810.03
2022-08-19T09:31:45.094Z,94804.16
2022-08-19T09:34:20.739Z,94801.53
2022-08-19T09:36:50.531Z,94800.13
2022-08-19T09:39:18.162Z,94790.81
2022-08-19T09:41:47.587Z,94799.25
2022-08-19T09:44:17.035Z,94797.63
2022-08-19T09:46:45.051Z,94793.91
2022-08-19T09:49:11.956Z,94791.69
2022-08-19T09:51:40.363Z,94799.88
2022-08-19T09:54:07.956Z,94799.56
2022-08-19T09:56:38.586Z,94797.25
2022-08-19T09:59:10.400Z,94796.47
2022-08-19T10:01:37.187Z,94784.94
2022-08-19T10:04:20.110Z,94779.50
2022-08-19T10:06:53.627Z,94788.94
2022-08-19T10:09:33.710Z,94775.81
2022-08-19T10:12:03.621Z,94773.56
2022-08-19T10:14:31.621Z,94762.91
2022-08-19T10:16:59.164Z,94771.44
2022-08-19T10:19:26.791Z,94763.72
2022-08-19T10:21:55.596Z,94774.91
2022-08-19T10:24:28.794Z,94767.22
2022-08-19T10:26:59.138Z,94742.16
2022-08-19T10:29:32.660Z,94764.53
2022-08-19T10:32:09.542Z,94761.44
2022-08-19T10:34:48.375Z,94751.38
2022-08-19T10:37:23.693Z,94755.94
2022-08-19T10:39:55.646Z,94758.22
2022-08-19T10:42:22.863Z,94756.72
2022-08-19T10:44:49.671Z,94753.56
2022-08-19T10:47:26.119Z,94750.31
2022-08-19T10:50:17.240Z,94757.94
2022-08-19T10:52:49.257Z,94756.63
2022-08-19T10:55:36.977Z,94761.56
2022-08-19T10:58:03.951Z,94749.50
2022-08-19T11:00:32.491Z,94746.78
2022-08-19T11:02:59.456Z,94748.81
2022-08-19T11:05:26.390Z,94745.94
2022-08-19T11:07:53.484Z,94744.78
2022-08-19T11:10:22.524Z,94744.66
2022-08-19T11:12:55.649Z,94746.47
2022-08-19T11:15:22.960Z,94747.50
2022-08-19T11:17:49.891Z,94749.69
2022-08-19T11:20:16.924Z,94744.84
2022-08-19T11:22:43.747Z,94755.78
2022-08-19T11:25:12.210Z,94751.56
2022-08-19T11:27:47.279Z,94739.66
2022-08-19T11:30:15.026Z,94742.03
2022-08-19T11:32:45.881Z,94734.47
2022-08-19T11:35:17.284Z,94733.38
2022-08-19T11:37:44.062Z,94717.94
2022-08-19T11:40:11.510Z,94722.31
2022-08-19T11:42:57.655Z,94723.19
2022-08-19T11:45:26.690Z,94711.16
2022-08-19T11:47:54.235Z,94715.53
2022-08-19T11:50:21.224Z,94717.84
2022-08-19T11:52:48.712Z,94717.19
2022-08-19T11:55:15.626Z,94702.59
2022-08-19T11:57:44.677Z,94706.41
2022-08-19T12:00:14.046Z,94708.88
2022-08-19T12:02:41.824Z,94709.88
2022-08-19T12:05:12.253Z,94709.03
2022-08-19T12:07:40.785Z,94709.38
2022-08-19T12:10:08.317Z,94713.97
2022-08-19T12:12:35.818Z,94704.69
2022-08-19T12:15:03.118Z,94696.50
2022-08-19T12:17:31.894Z,94699.09
2022-08-19T12:19:58.664Z,94706.38
2022-08-19T12:22:25.755Z,94700.34
2022-08-19T12:24:54.356Z,94689.94
2022-08-19T12:27:40.010Z,94688.78
2022-08-19T12:30:11.928Z,94681.50
2022-08-19T12:32:39.625Z,94690.31
2022-08-19T12:35:09.283Z,94681.50
2022-08-19T12:37:36.462Z,94666.75
2022-08-19T12:40:05.027Z,94675.50
2022-08-19T12:42:32.035Z,94658.38
2022-08-19T12:44:58.849Z,94666.97
2022-08-19T12:47:27.482Z,94659.41
2022-08-19T12:49:56.039Z,94660.69
2022-08-19T12:52:28.421Z,94630.41
2022-08-19T12:54:57.536Z,94649.81
2022-08-19T12:57:32.638Z,94656.78
2022-08-19T13:00:04.721Z,94665.22
2022-08-19T13:02:39.029Z,94657.56
2022-08-19T13:05:09.514Z,94666.28
2022-08-19T13:07:38.287Z,94676.13
2022-08-19T13:10:07.155Z,94667.28
2022-08-19T13:12:34.114Z,94671.47
2022-08-19T13:15:01.151Z,94663.81
2022-08-19T13:17:28.301Z,94660.50
2022-08-19T13:19:55.091Z,94666.44
2022-08-19T13:22:21.910Z,94670.91
2022-08-19T13:24:49.416Z,94660.44
2022-08-19T13:27:16.422Z,94661.34
2022-08-19T13:30:03.518Z,94669.81
2022-08-19T13:32:50.108Z,94658.72
2022-08-19T13:35:17.904Z,94667.00
2022-08-19T13:37:46.524Z,94661.75
2022-08-19T13:40:17.370Z,94658.63
2022-08-19T13:42:49.296Z,94647.03
2022-08-19T13:45:19.170Z,94653.09
2022-08-19T13:47:52.083Z,94651.38
2022-08-19T13:50:28.255Z,94642.13
2022-08-19T13:52:57.305Z,94648.22
2022-08-19T13:55:25.415Z,94649.53
2022-08-19T13:57:54.305Z,94646.28
2022-08-19T14:00:22.796Z,94646.75
2022-08-19T14:02:52.679Z,94643.13
2022-08-19T14:05:20.927Z,94651.06
2022-08-19T14:07:49.161Z,94644.41
2022-08-19T14:10:17.071Z,94641.78
2022-08-19T14:12:43.809Z,94639.75
2022-08-19T14:15:12.769Z,94639.22
2022-08-19T14:17:41.648Z,94643.28
2022-08-19T14:20:11.370Z,94639.94
2022-08-19T14:22:46.170Z,94634.97
2022-08-19T14:25:20.428Z,94636.25
2022-08-19T14:27:48.188Z,94628.78
2022-08-19T14:30:17.970Z,94622.47
2022-08-19T14:32:45.012Z,94621.91
2022-08-19T14:35:13.669Z,94619.50
2022-08-19T14:37:45.492Z,94614.53
2022-08-19T14:40:15.460Z,94616.66
2022-08-19T14:42:42.986Z,94595.78
2022-08-19T14:45:12.091Z,94610.56
2022-08-19T14:47:39.664Z,94600.81
2022-08-19T14:50:17.899Z,94606.97
2022-08-19T14:52:49.175Z,94606.59
2022-08-19T14:55:18.803Z,94615.44
2022-08-19T14:57:46.212Z,94618.28
2022-08-19T15:00:16.701Z,94608.47
2022-08-19T15:02:45.324Z,94618.09
2022-08-19T15:05:13.827Z,94620.41
2022-08-19T15:07:42.038Z,94613.94
2022-08-19T15:10:10.659Z,94629.03
2022-08-19T15:12:43.490Z,94627.97
2022-08-19T15:15:15.849Z,94628.31
2022-08-19T15:17:46.519Z,94630.72
2022-08-19T15:20:16.396Z,94619.34
2022-08-19T15:22:43.449Z,94631.91
2022-08-19T15:25:12.347Z,94618.00
2022-08-19T15:27:40.762Z,94606.13
2022-08-19T15:30:12.236Z,94607.00
2022-08-19T15:32:39.801Z,94611.63
2022-08-19T15:35:08.077Z,94617.66
2022-08-19T15:37:37.154Z,94612.44
2022-08-19T15:40:06.568Z,94607.91
2022-08-19T15:42:35.446Z,94613.97
2022-08-19T15:45:02.651Z,94615.53
2022-08-19T15:47:35.541Z,94602.59
2022-08-19T15:50:21.422Z,94610.56
2022-08-19T15:52:51.306Z,94604.03
2022-08-19T15:55:33.065Z,94615.97
2022-08-19T15:58:29.884Z,94609.09
2022-08-19T16:01:22.091Z,94603.38
2022-08-19T16:04:14.154Z,94609.44
2022-08-19T16:06:47.976Z,94614.22
2022-08-19T16:09:16.315Z,94612.09
2022-08-19T16:11:46.400Z,94605.22
2022-08-19T16:14:18.627Z,94605.91
2022-08-19T16:16:47.806Z,94610.84
2022-08-19T16:19:17.190Z,94611.50
2022-08-19T16:21:50.331Z,94608.13
2022-08-19T16:24:19.972Z,94599.34
2022-08-19T16:26:47.043Z,94603.59
2022-08-19T16:29:15.338Z,94602.97
2022-08-19T16:31:57.781Z,94600.69
2022-08-19T16:34:25.834Z,94610.22
2022-08-19T16:36:53.109Z,94607.00
2022-08-19T16:39:19.957Z,94608.09
2022-08-19T16:41:47.141Z,94602.44
2022-08-19T16:44:15.443Z,94602.72
2022-08-19T16:46:42.474Z,94597.84
2022-08-19T16:49:10.744Z,94596.19
2022-08-19T16:51:39.387Z,94594.06
2022-08-19T16:54:06.794Z,94584.09
2022-08-19T16:56:33.858Z,94601.72
2022-08-19T16:59:00.783Z,94587.91
2022-08-19T17:01:28.878Z,94579.53
2022-08-19T17:03:57.175Z,94583.56
2022-08-19T17:06:28.781Z,94579.91
2022-08-19T17:08:59.152Z,94569.19
2022-08-19T17:11:28.102Z,94576.91
2022-08-19T17:13:56.846Z,94578.41
2022-08-19T17:16:25.788Z,94579.41
2022-08-19T17:18:57.576Z,94583.91
2022-08-19T17:21:28.480Z,94568.75
2022-08-19T17:23:56.886Z,94584.03
2022-08-19T17:26:25.366Z,94583.84
2022-08-19T17:28:54.088Z,94586.72
2022-08-19T17:31:23.711Z,94579.56
2022-08-19T17:33:51.503Z,94583.25
2022-08-19T17:36:23.550Z,94573.84
2022-08-19T17:38:52.092Z,94583.63
2022-08-19T17:41:19.136Z,94583.00
2022-08-19T17:43:46.131Z,94578.59
2022-08-19T17:46:20.410Z,94583.13
2022-08-19T17:48:56.792Z,94585.94
2022-08-19T17:51:41.971Z,94591.06
2022-08-19T17:54:12.624Z,94597.09
2022-08-19T17:56:39.580Z,94599.16
2022-08-19T17:59:07.875Z,94599.19
2022-08-19T18:01:52.728Z,94608.44
2022-08-19T18:04:22.297Z,94605.94
2022-08-19T18:06:52.973Z,94603.41
2022-08-19T18:09:27.599Z,94606.91
2022-08-19T18:11:57.248Z,94615.13
2022-08-19T18:14:33.351Z,94608.75
2022-08-19T18:17:08.951Z,94607.47
2022-08-19T18:19:41.947Z,94598.38
2022-08-19T18:22:22.625Z,94617.06
2022-08-19T18:24:49.832Z,94590.41
2022-08-19T18:27:16.955Z,94611.56
2022-08-19T18:29:44.920Z,94621.41
2022-08-19T18:32:12.911Z,94617.41
2022-08-19T18:34:41.721Z,94626.41
2022-08-19T18:37:09.037Z,94623.13
2022-08-19T18:39:54.280Z,94631.41
2022-08-19T18:42:39.706Z,94631.03
2022-08-19T18:45:26.045Z,94632.66
2022-08-19T18:48:26.305Z,94622.91
2022-08-19T18:50:56.316Z,94625.59
2022-08-19T18:53:24.250Z,94614.78
2022-08-19T18:55:53.992Z,94614.81
2022-08-19T18:58:32.194Z,94625.50
2022-08-19T19:01:10.601Z,94633.78
2022-08-19T19:03:43.651Z,94627.13
2022-08-19T19:06:10.557Z,94625.16
2022-08-19T19:08:38.966Z,94600.72
2022-08-19T19:11:06.281Z,94636.06
2022-08-19T19:13:34.505Z,94645.00
2022-08-19T19:16:02.252Z,94634.53
2022-08-19T19:18:30.066Z,94646.53
2022-08-19T19:20:57.592Z,94649.97
2022-08-19T19:23:24.636Z,94658.72
2022-08-19T19:25:52.402Z,94661.34
2022-08-19T19:28:28.388Z,94650.22
2022-08-19T19:30:58.542Z,94665.78
2022-08-19T19:33:26.787Z,94659.09
2022-08-19T19:35:53.625Z,94662.63
2022-08-19T19:38:20.513Z,94674.84
2022-08-19T19:40:47.494Z,94675.50
2022-08-19T19:43:17.423Z,94672.75
2022-08-19T19:45:46.231Z,94678.88
2022-08-19T19:48:14.964Z,94678.63
2022-08-19T19:50:43.284Z,94683.34
2022-08-19T19:53:10.189Z,94682.66
2022-08-19T19:55:37.168Z,94691.31
2022-08-19T19:58:07.131Z,94693.06
2022-08-19T20:00:34.388Z,94683.44
2022-08-19T20:03:01.207Z,94694.09
2022-08-19T20:05:28.309Z,94693.47
2022-08-19T20:08:14.764Z,94698.53
2022-08-19T20:10:43.319Z,94696.69
2022-08-19T20:13:11.351Z,94693.56
2022-08-19T20:15:42.353Z,94705.25
2022-08-19T20:18:11.727Z,94692.00
2022-08-19T20:20:38.924Z,94710.31
2022-08-19T20:23:06.170Z,94705.00
2022-08-19T20:25:33.676Z,94704.59
2022-08-19T20:28:01.436Z,94703.09
2022-08-19T20:30:30.994Z,94699.88
2022-08-19T20:33:00.100Z,94682.28
2022-08-19T20:35:26.942Z,94703.69
2022-08-19T20:37:58.016Z,94703.34
2022-08-19T20:40:28.768Z,94691.06
2022-08-19T20:42:56.698Z,94716.06
2022-08-19T20:45:32.959Z,94711.41
2022-08-19T20:48:03.304Z,94718.63
2022-08-19T20:50:32.857Z,94722.97
2022-08-19T20:53:00.677Z,94726.13
2022-08-19T20:55:28.930Z,94722.38
2022-08-19T20:57:56.594Z,94720.31
2022-08-19T21:00:30.782Z,94729.41
2022-08-19T21:12:39.943Z,94726.47
2022-08-19T21:15:07.364Z,94722.69
2022-08-19T21:17:34.173Z,94712.72
2022-08-19T21:20:01.141Z,94710.50
2022-08-19T21:22:27.912Z,94726.75
2022-08-19T21:24:55.269Z,94727.22
2022-08-19T21:27:22.073Z,94731.75
2022-08-19T21:29:49.357Z,94732.69
2022-08-19T21:32:16.788Z,94731.56
2022-08-19T21:34:46.108Z,94735.81
2022-08-19T21:37:25.384Z,94738.00
2022-08-19T21:39:54.381Z,94744.88
2022-08-19T21:42:23.364Z,94744.41
2022-08-19T21:44:50.478Z,94738.63
2022-08-19T21:47:17.545Z,94735.50
2022-08-19T21:49:44.348Z,94733.63
2022-08-19T21:52:11.229Z,94731.44
2022-08-19T21:54:38.666Z,94732.69
2022-08-19T21:57:10.169Z,94736.44
2022-08-19T21:59:43.532Z,94731.13
2022-08-19T22:02:20.352Z,94736.44
2022-08-19T22:04:49.045Z,94733.97
2022-08-19T22:07:16.030Z,94721.47
2022-08-19T22:09:45.210Z,94730.06
2022-08-19T22:12:29.487Z,94722.09
2022-08-19T22:14:56.926Z,94736.78
2022-08-19T22:17:24.619Z,94723.22
2022-08-19T22:19:52.685Z,94732.09
2022-08-19T22:22:25.256Z,94725.09
2022-08-19T22:24:53.507Z,94726.63
2022-08-19T22:27:20.975Z,94724.28
2022-08-19T22:29:47.886Z,94689.59
2022-08-19T22:32:28.319Z,94709.63
2022-08-19T22:34:58.194Z,94694.44
2022-08-19T22:37:26.150Z,94693.38
2022-08-19T22:39:53.337Z,94701.19
2022-08-19T22:42:21.188Z,94696.50
2022-08-19T22:44:48.903Z,94691.78
2022-08-19T22:47:15.866Z,94686.63
2022-08-19T22:49:42.591Z,94691.66
2022-08-19T22:52:17.470Z,94694.00
2022-08-19T22:54:46.675Z,94679.31
2022-08-19T22:57:14.811Z,94663.06
2022-08-19T22:59:43.977Z,94676.66
2022-08-19T23:02:12.014Z,94675.41
2022-08-19T23:04:38.828Z,94681.50
2022-08-19T23:07:05.987Z,94675.72
2022-08-19T23:09:32.800Z,94684.16
2022-08-19T23:12:00.695Z,94682.13
2022-08-19T23:14:28.120Z,94685.09
2022-08-19T23:16:58.765Z,94677.00
2022-08-19T23:19:26.131Z,94682.00
2022-08-19T23:21:52.951Z,94689.97
2022-08-19T23:24:19.795Z,94692.00
2022-08-19T23:27:05.012Z,94677.28
2022-08-19T23:29:50.501Z,94673.38
2022-08-19T23:32:19.107Z,94678.69
2022-08-19T23:34:46.488Z,94667.75
2022-08-19T23:37:13.349Z,94673.69
2022-08-19T23:39:40.936Z,94669.47
2022-08-19T23:42:11.507Z,94662.28
2022-08-19T23:44:51.359Z,94641.06
2022-08-19T23:47:19.277Z,94654.00
2022-08-19T23:49:47.603Z,94649.63
2022-08-19T23:52:14.473Z,94636.81
2022-08-19T23:54:43.409Z,94652.41
2022-08-19T23:57:13.493Z,94649.28
2022-08-19T23:59:42.723Z,94648.97
